Time;durP1;ratioP1;P1;durP2;ratioP2;P2;SDS_P1;SDS_P2;PMS_P1;PMS_P2;Temp;Humidity;BMP_temperature;BMP_pressure;BME280_temperature;BME280_humidity;BME280_pressure;Samples;Min_cycle;Max_cycle;Signal;HPM_P1;HPM_P2
2021/03/11 00:01:50;;;;;;;6.40;4.07;;;;;;;5.64;85.65;99540.63;5071583;28;20504;-74
2021/03/11 00:04:16;;;;;;;5.13;4.73;;;;;;;5.63;85.73;99531.72;5071548;28;20202;-75
2021/03/11 00:06:41;;;;;;;4.93;4.53;;;;;;;5.52;86.24;99527.59;5071201;28;20241;-75
2021/03/11 00:09:06;;;;;;;3.60;3.30;;;;;;;5.50;86.26;99513.56;5071526;28;20206;-75
2021/03/11 00:11:32;;;;;;;5.73;5.13;;;;;;;5.49;87.08;99516.53;5070315;28;20174;-74
2021/03/11 00:13:57;;;;;;;5.20;4.80;;;;;;;5.45;87.54;99512.84;5071619;28;20175;-74
2021/03/11 00:16:22;;;;;;;1.87;1.77;;;;;;;5.50;86.85;99496.50;5069609;28;20175;-75
2021/03/11 00:18:48;;;;;;;6.00;3.80;;;;;;;5.45;86.70;99513.66;5070453;28;20638;-74
2021/03/11 00:21:13;;;;;;;1.77;1.67;;;;;;;5.43;87.57;99501.50;5071552;28;20295;-74
2021/03/11 00:23:38;;;;;;;10.20;3.17;;;;;;;5.41;86.87;99507.22;5071508;28;20206;-74
2021/03/11 00:26:04;;;;;;;5.53;3.30;;;;;;;5.37;87.10;99489.97;5071274;28;20523;-75
2021/03/11 00:28:29;;;;;;;5.27;4.77;;;;;;;5.33;87.95;99481.63;5070848;28;20166;-75
2021/03/11 00:30:55;;;;;;;5.77;4.73;;;;;;;5.35;88.04;99478.63;5071325;28;20308;-75
2021/03/11 00:33:20;;;;;;;5.43;5.03;;;;;;;5.33;88.16;99473.50;5071050;28;20198;-75
2021/03/11 00:35:46;;;;;;;6.80;4.63;;;;;;;5.28;88.91;99468.19;5070018;28;20182;-75
2021/03/11 00:38:11;;;;;;;3.73;3.40;;;;;;;5.27;89.31;99458.47;5070286;28;20179;-75
2021/03/11 00:40:37;;;;;;;6.27;5.73;;;;;;;5.14;89.62;99445.72;5069845;28;20186;-75
2021/03/11 00:43:02;;;;;;;5.37;4.87;;;;;;;5.20;90.03;99449.13;5070713;28;20621;-75
2021/03/11 00:45:27;;;;;;;5.10;4.60;;;;;;;5.23;89.49;99448.56;5070881;28;20524;-75
2021/03/11 00:47:53;;;;;;;4.10;3.77;;;;;;;5.17;90.30;99433.50;5070049;28;20696;-75
2021/03/11 00:50:21;;;;;;;3.47;3.17;;;;;;;5.14;90.64;99428.69;5070839;28;20519;-75
2021/03/11 00:52:47;;;;;;;4.83;4.43;;;;;;;5.04;91.44;99425.06;5070784;28;20210;-75
2021/03/11 00:55:13;;;;;;;2.73;2.53;;;;;;;5.08;90.77;99415.25;5070855;28;20275;-75
2021/03/11 00:57:40;;;;;;;5.00;4.27;;;;;;;4.99;91.42;99400.00;5070015;28;20191;-74
2021/03/11 01:00:07;;;;;;;6.53;5.90;;;;;;;4.94;91.91;99386.56;5070778;28;20261;-76
2021/03/11 01:02:33;;;;;;;3.87;3.60;;;;;;;5.00;91.43;99377.25;5070292;28;20202;-75
2021/03/11 01:04:58;;;;;;;4.23;3.93;;;;;;;5.00;91.73;99388.06;5070689;28;20729;-75
2021/03/11 01:07:24;;;;;;;3.57;3.27;;;;;;;4.94;92.35;99392.78;5069944;28;20206;-75
2021/03/11 01:09:49;;;;;;;4.07;3.77;;;;;;;4.89;92.37;99376.63;5070712;28;20170;-75
2021/03/11 01:12:15;;;;;;;3.40;3.10;;;;;;;4.92;92.31;99384.16;5070634;28;20179;-74
2021/03/11 01:14:41;;;;;;;3.57;3.27;;;;;;;4.90;92.11;99374.72;5070590;28;20210;-75
2021/03/11 01:17:07;;;;;;;4.63;4.23;;;;;;;4.87;92.49;99356.38;5070015;28;20635;-75
2021/03/11 01:19:32;;;;;;;3.33;2.23;;;;;;;4.86;92.52;99354.78;5070246;28;20240;-75
2021/03/11 01:21:57;;;;;;;6.23;4.40;;;;;;;4.81;92.55;99344.88;5070527;28;20174;-74
2021/03/11 01:24:23;;;;;;;0.50;0.50;;;;;;;4.86;92.30;99349.38;5070374;28;20263;-74
2021/03/11 01:26:48;;;;;;;5.43;4.27;;;;;;;4.81;92.36;99328.63;5070136;28;20175;-75
2021/03/11 01:29:13;;;;;;;4.83;4.37;;;;;;;4.84;92.38;99300.16;5070578;28;20231;-75
2021/03/11 01:31:39;;;;;;;2.53;1.80;;;;;;;4.90;92.53;99288.13;5070808;28;20186;-75
2021/03/11 01:34:04;;;;;;;5.33;4.40;;;;;;;4.90;91.86;99278.09;5070284;28;20181;-75
2021/03/11 01:36:29;;;;;;;4.57;4.17;;;;;;;4.93;92.39;99269.41;5069986;28;20182;-75
2021/03/11 01:38:55;;;;;;;5.53;4.97;;;;;;;4.92;91.55;99267.81;5070672;28;20257;-75
2021/03/11 01:41:21;;;;;;;4.50;4.10;;;;;;;4.88;92.02;99252.44;5070790;28;20572;-75
2021/03/11 01:43:47;;;;;;;5.27;4.77;;;;;;;4.94;91.67;99246.66;5070338;28;20250;-75
2021/03/11 01:46:12;;;;;;;4.10;3.53;;;;;;;4.98;91.83;99230.59;5068668;28;20217;-75
2021/03/11 01:48:37;;;;;;;2.97;2.77;;;;;;;5.06;91.37;99232.56;5070151;28;21046;-75
2021/03/11 01:51:03;;;;;;;3.03;2.83;;;;;;;5.00;91.06;99222.97;5070405;28;20170;-75
2021/03/11 01:53:30;;;;;;;2.47;2.27;;;;;;;5.08;90.71;99227.66;5070528;28;20185;-74
2021/03/11 01:55:55;;;;;;;3.17;2.97;;;;;;;5.09;90.48;99213.03;5070433;28;20174;-75
2021/03/11 01:58:21;;;;;;;4.20;3.73;;;;;;;5.08;90.59;99206.81;5069715;28;20603;-75
2021/03/11 02:00:46;;;;;;;4.70;4.30;;;;;;;5.05;90.73;99207.41;5070084;28;20225;-74
2021/03/11 02:03:12;;;;;;;6.27;5.83;;;;;;;5.01;91.02;99197.50;5069821;28;20480;-75
2021/03/11 02:05:37;;;;;;;4.27;3.80;;;;;;;5.10;90.72;99201.09;5070056;28;20225;-75
2021/03/11 02:08:03;;;;;;;4.43;3.87;;;;;;;5.04;90.83;99194.19;5069504;28;20487;-75
2021/03/11 02:10:28;;;;;;;4.17;3.40;;;;;;;5.14;90.00;99172.28;5070007;28;20236;-75
2021/03/11 02:13:10;;;;;;;5.03;4.63;;;;;;;5.18;89.70;99169.75;5070188;28;20182;-74
2021/03/11 02:16:02;;;;;;;3.97;3.67;;;;;;;5.22;89.48;99168.06;5068420;28;20701;-75
2021/03/11 02:18:33;;;;;;;7.00;6.40;;;;;;;5.11;90.31;99148.56;5069116;28;20190;-75
2021/03/11 02:21:06;;;;;;;4.90;4.33;;;;;;;5.15;90.20;99133.28;5069919;28;20296;-74
2021/03/11 02:23:57;;;;;;;6.53;4.50;;;;;;;5.17;89.71;99125.66;5070194;28;20194;-74
2021/03/11 02:26:35;;;;;;;4.33;3.93;;;;;;;5.18;90.11;99104.78;5068054;28;20642;-75
2021/03/11 02:29:06;;;;;;;4.60;4.20;;;;;;;5.18;89.71;99094.75;5069764;28;20635;-74
2021/03/11 02:31:35;;;;;;;1.80;1.67;;;;;;;5.30;88.97;99096.91;5069640;28;20217;-74
2021/03/11 02:34:05;;;;;;;7.90;4.60;;;;;;;5.30;89.00;99081.47;5069931;28;20175;-75
2021/03/11 02:36:32;;;;;;;4.77;4.30;;;;;;;5.34;88.29;99087.84;5069190;28;20163;-75
2021/03/11 02:39:00;;;;;;;6.23;5.63;;;;;;;5.36;88.88;99074.03;5069887;28;20533;-75
2021/03/11 02:41:26;;;;;;;5.13;4.57;;;;;;;5.40;88.51;99063.38;5069693;28;20171;-75
2021/03/11 02:43:52;;;;;;;4.37;3.67;;;;;;;5.45;87.57;99058.59;5072640;28;20611;-75
2021/03/11 02:46:19;;;;;;;7.17;4.30;;;;;;;5.52;87.34;99058.97;5072927;28;20266;-75
2021/03/11 02:48:47;;;;;;;3.37;3.10;;;;;;;5.49;87.62;99046.03;5073068;28;20178;-74
2021/03/11 02:51:15;;;;;;;6.70;6.10;;;;;;;5.43;87.92;99031.03;5073102;28;20171;-74
2021/03/11 02:53:40;;;;;;;3.00;2.80;;;;;;;5.51;87.32;99037.63;5073252;28;20202;-74
2021/03/11 02:56:07;;;;;;;3.40;2.37;;;;;;;5.60;86.41;99024.88;5073180;28;20202;-74
2021/03/11 02:58:33;;;;;;;5.33;4.90;;;;;;;5.59;86.39;99026.78;5072649;28;20185;-74
2021/03/11 03:01:00;;;;;;;2.93;2.70;;;;;;;5.65;85.83;99017.44;5073024;28;20542;-74
2021/03/11 03:03:27;;;;;;;4.60;4.20;;;;;;;5.65;86.36;99005.78;5072686;28;20201;-74
2021/03/11 03:05:53;;;;;;;4.40;4.00;;;;;;;5.64;86.34;99007.72;5072910;28;20258;-74
2021/03/11 03:08:20;;;;;;;5.17;4.67;;;;;;;5.57;86.79;98993.81;5072309;28;20269;-74
2021/03/11 03:10:47;;;;;;;3.63;3.20;;;;;;;5.77;85.55;98983.50;5073080;28;20174;-75
2021/03/11 03:13:14;;;;;;;3.70;3.30;;;;;;;5.82;85.17;98973.31;5072686;28;20670;-74
2021/03/11 03:15:41;;;;;;;2.60;1.77;;;;;;;5.83;85.03;98972.19;5072734;28;20638;-74
2021/03/11 03:18:08;;;;;;;7.40;5.33;;;;;;;5.82;85.07;98978.75;5072022;28;20178;-73
2021/03/11 03:20:34;;;;;;;2.17;2.03;;;;;;;5.82;85.33;98940.81;5072773;28;20262;-74
2021/03/11 03:23:05;;;;;;;3.67;3.33;;;;;;;5.83;85.14;98968.69;5072376;28;20645;-74
2021/03/11 03:25:30;;;;;;;2.83;2.57;;;;;;;5.88;84.76;98950.38;5072591;28;20258;-74
2021/03/11 03:27:56;;;;;;;3.77;3.47;;;;;;;5.85;84.96;98934.75;5070699;28;20269;-74
2021/03/11 03:30:22;;;;;;;1.90;1.80;;;;;;;5.88;85.50;98922.47;5072364;28;20240;-74
2021/03/11 03:32:47;;;;;;;2.77;2.53;;;;;;;5.91;84.97;98927.28;5069848;28;20656;-75
2021/03/11 03:35:14;;;;;;;2.53;1.63;;;;;;;5.93;84.84;98915.03;5072519;28;20235;-74
2021/03/11 03:37:41;;;;;;;4.07;3.50;;;;;;;5.93;85.09;98909.59;5071768;28;20178;-74
2021/03/11 03:40:08;;;;;;;2.37;2.27;;;;;;;5.95;84.60;98893.03;5062088;28;20190;-75
2021/03/11 03:42:43;;;;;;;1.27;1.17;;;;;;;5.96;84.68;98887.28;5051983;28;20218;-74
2021/03/11 03:45:18;;;;;;;3.53;3.20;;;;;;;5.99;84.48;98875.00;5068394;28;20198;-74
2021/03/11 03:47:44;;;;;;;3.50;3.20;;;;;;;6.03;84.19;98885.97;5070718;28;20611;-74
2021/03/11 03:50:11;;;;;;;1.60;1.50;;;;;;;6.07;83.81;98887.72;5071981;28;20515;-74
2021/03/11 03:52:40;;;;;;;4.13;3.83;;;;;;;6.07;84.10;98876.09;5072054;28;20591;-74
2021/03/11 03:55:07;;;;;;;3.97;3.67;;;;;;;6.04;84.25;98877.53;5070605;28;20178;-74
2021/03/11 03:57:36;;;;;;;1.80;1.73;;;;;;;6.07;84.25;98863.34;5070073;28;20175;-73
2021/03/11 04:00:06;;;;;;;2.03;1.73;;;;;;;6.09;83.91;98858.41;5071801;28;20537;-74
2021/03/11 04:02:33;;;;;;;6.87;3.73;;;;;;;6.09;84.62;98860.31;5071686;28;20202;-74
2021/03/11 04:05:02;;;;;;;2.63;2.43;;;;;;;6.03;84.88;98848.81;5070777;28;20544;-74
2021/03/11 04:07:30;;;;;;;3.30;3.03;;;;;;;6.03;84.90;98859.66;5071167;28;20229;-74
2021/03/11 04:09:56;;;;;;;7.20;1.37;;;;;;;6.03;84.84;98859.66;5071660;28;20265;-73
2021/03/11 04:12:22;;;;;;;2.07;1.90;;;;;;;6.07;84.49;98847.06;5071384;28;20694;-74
2021/03/11 04:14:49;;;;;;;1.93;1.57;;;;;;;6.05;85.13;98860.16;5071718;28;20171;-74
2021/03/11 04:17:15;;;;;;;5.27;3.70;;;;;;;6.04;85.20;98845.00;5070940;28;20657;-75
2021/03/11 04:19:42;;;;;;;0.83;0.83;;;;;;;6.05;85.02;98829.53;5071483;28;20250;-74
2021/03/11 04:22:09;;;;;;;1.00;0.90;;;;;;;6.07;84.77;98830.78;5071379;28;20175;-74
2021/03/11 04:24:36;;;;;;;8.30;4.30;;;;;;;6.07;84.58;98806.41;5071727;28;20397;-74
2021/03/11 04:27:04;;;;;;;3.00;2.77;;;;;;;6.14;84.18;98812.13;5071226;28;20273;-74
2021/03/11 04:29:30;;;;;;;5.37;3.03;;;;;;;6.16;83.91;98819.94;5071392;28;20604;-74
2021/03/11 04:31:56;;;;;;;3.83;3.33;;;;;;;6.18;84.37;98804.16;5071151;28;20266;-74
2021/03/11 04:34:22;;;;;;;2.77;2.27;;;;;;;6.21;84.07;98819.78;5071351;28;20631;-74
2021/03/11 04:36:49;;;;;;;2.20;2.03;;;;;;;6.21;84.36;98833.31;5070786;28;20166;-74
2021/03/11 04:39:16;;;;;;;1.60;1.50;;;;;;;6.24;84.31;98819.16;5071136;28;20236;-74
2021/03/11 04:41:42;;;;;;;1.73;1.63;;;;;;;6.29;83.66;98820.88;5071045;28;20186;-74
2021/03/11 04:44:07;;;;;;;2.57;2.37;;;;;;;6.28;84.20;98803.03;5070956;28;20213;-74
2021/03/11 04:46:33;;;;;;;2.50;2.30;;;;;;;6.32;83.80;98821.03;5070432;28;20203;-74
2021/03/11 04:49:00;;;;;;;1.90;1.80;;;;;;;6.33;83.31;98825.34;5070722;28;20643;-74
2021/03/11 04:51:26;;;;;;;4.27;2.73;;;;;;;6.34;83.61;98804.44;5070956;28;20171;-74
2021/03/11 04:53:53;;;;;;;1.90;1.80;;;;;;;6.40;83.06;98812.09;5070914;28;20732;-74
2021/03/11 04:56:19;;;;;;;3.50;3.20;;;;;;;6.37;83.35;98804.59;5070437;28;20190;-74
2021/03/11 04:58:44;;;;;;;3.03;1.93;;;;;;;6.41;83.25;98805.53;5070794;28;20234;-74
2021/03/11 05:01:19;;;;;;;0.97;0.97;;;;;;;6.44;83.04;98804.88;5071063;28;20605;-74
2021/03/11 05:03:45;;;;;;;1.07;1.07;;;;;;;6.46;83.36;98799.13;5070507;28;20623;-74
2021/03/11 05:06:12;;;;;;;2.57;1.07;;;;;;;6.47;82.68;98798.00;5069811;28;20304;-75
2021/03/11 05:08:38;;;;;;;2.43;1.43;;;;;;;6.45;82.89;98784.78;5070435;28;20217;-74
2021/03/11 05:11:03;;;;;;;1.47;0.80;;;;;;;6.46;83.09;98788.28;5070695;28;20207;-74
2021/03/11 05:13:32;;;;;;;2.50;2.30;;;;;;;6.49;83.01;98804.69;5070730;28;20174;-74
2021/03/11 05:15:58;;;;;;;1.87;1.77;;;;;;;6.54;82.87;98803.75;5070543;28;20638;-74
2021/03/11 05:18:23;;;;;;;2.63;2.47;;;;;;;6.57;82.60;98778.66;5069907;28;20205;-74
2021/03/11 05:20:49;;;;;;;7.73;1.37;;;;;;;6.56;82.99;98777.88;5070611;28;20448;-74
2021/03/11 05:23:14;;;;;;;2.47;2.37;;;;;;;6.54;83.05;98785.53;5070405;28;20217;-74
2021/03/11 05:25:39;;;;;;;3.33;3.03;;;;;;;6.56;83.74;98777.06;5070365;28;20170;-74
2021/03/11 05:28:06;;;;;;;0.67;0.67;;;;;;;6.61;83.61;98781.53;5070192;28;20174;-73
2021/03/11 05:30:31;;;;;;;7.20;1.10;;;;;;;6.64;83.63;98773.50;5070368;28;20254;-74
2021/03/11 05:32:57;;;;;;;1.23;1.17;;;;;;;6.62;83.53;98766.84;5070513;28;20204;-74
2021/03/11 05:35:22;;;;;;;1.03;1.03;;;;;;;6.61;84.04;98765.25;5070319;28;20178;-74
2021/03/11 05:37:47;;;;;;;2.27;2.07;;;;;;;6.59;84.07;98748.50;5069621;28;20636;-74
2021/03/11 05:40:13;;;;;;;1.57;1.47;;;;;;;6.64;84.46;98756.44;5068709;28;20269;-74
2021/03/11 05:42:43;;;;;;;2.20;2.10;;;;;;;6.65;84.00;98756.09;5068830;28;20221;-74
2021/03/11 05:45:09;;;;;;;2.60;1.73;;;;;;;6.65;84.39;98758.81;5070483;28;20178;-74
2021/03/11 05:47:35;;;;;;;1.43;1.33;;;;;;;6.70;84.29;98755.16;5069587;28;20185;-75
2021/03/11 05:50:03;;;;;;;2.83;1.83;;;;;;;6.77;83.84;98758.13;5069867;28;20232;-74
2021/03/11 05:52:30;;;;;;;3.67;1.37;;;;;;;6.75;84.02;98757.66;5070447;28;20190;-73
2021/03/11 05:54:56;;;;;;;3.63;2.27;;;;;;;6.79;84.02;98755.88;5068758;28;20178;-74
2021/03/11 05:57:21;;;;;;;1.20;0.57;;;;;;;6.78;84.21;98740.72;5069722;28;20601;-74
2021/03/11 05:59:47;;;;;;;0.67;0.67;;;;;;;6.76;84.92;98741.06;5070201;28;20252;-74
2021/03/11 06:02:14;;;;;;;0.93;0.93;;;;;;;6.75;85.10;98750.31;5070115;28;20183;-74
2021/03/11 06:04:40;;;;;;;2.47;1.63;;;;;;;6.69;86.22;98750.84;5069753;28;20206;-74
2021/03/11 06:07:06;;;;;;;1.17;0.83;;;;;;;6.61;87.22;98747.03;5069642;28;20265;-74
2021/03/11 06:09:33;;;;;;;2.03;1.90;;;;;;;6.53;88.22;98751.41;5069889;28;20181;-74
2021/03/11 06:11:59;;;;;;;2.10;2.00;;;;;;;6.50;88.56;98752.03;5069936;28;20669;-74
2021/03/11 06:14:34;;;;;;;1.87;1.77;;;;;;;6.47;89.13;98743.75;5070047;28;20210;-74
2021/03/11 06:17:05;;;;;;;3.20;2.63;;;;;;;6.41;90.46;98734.22;5068475;28;20182;-74
2021/03/11 06:19:31;;;;;;;1.70;1.60;;;;;;;6.32;91.43;98728.81;5074164;28;20644;-74
2021/03/11 06:21:56;;;;;;;1.47;1.33;;;;;;;6.31;92.07;98726.44;5073793;28;20261;-74
2021/03/11 06:24:22;;;;;;;1.53;1.23;;;;;;;6.29;92.16;98706.97;5073635;28;20214;-74
2021/03/11 06:26:48;;;;;;;1.07;0.53;;;;;;;6.28;92.50;98722.47;5072922;28;20189;-74
2021/03/11 06:29:16;;;;;;;1.17;1.07;;;;;;;6.30;92.44;98705.88;5073697;28;20170;-74
2021/03/11 06:31:42;;;;;;;1.63;1.53;;;;;;;6.29;92.25;98710.50;5071940;28;20536;-74
2021/03/11 06:34:19;;;;;;;1.80;1.70;;;;;;;6.33;91.95;98716.84;5072086;28;20240;-74
2021/03/11 06:36:46;;;;;;;2.17;2.00;;;;;;;6.36;91.77;98697.19;5072919;28;20253;-74
2021/03/11 06:39:25;;;;;;;4.33;2.17;;;;;;;6.38;91.42;98695.00;5073433;28;20204;-74
2021/03/11 06:41:51;;;;;;;3.37;2.13;;;;;;;6.44;91.20;98698.31;5073257;28;20182;-74
2021/03/11 06:44:16;;;;;;;1.10;1.07;;;;;;;6.43;91.29;98700.22;5073152;28;20237;-75
2021/03/11 06:47:03;;;;;;;2.73;2.33;;;;;;;6.42;91.31;98698.63;5072961;28;20466;-74
2021/03/11 06:49:29;;;;;;;2.33;2.20;;;;;;;6.42;91.52;98674.22;5073239;28;20166;-75
2021/03/11 06:52:08;;;;;;;1.10;1.00;;;;;;;6.44;91.47;98674.69;5071799;28;20166;-74
2021/03/11 06:55:00;;;;;;;0.47;0.47;;;;;;;6.40;91.91;98662.91;5073176;28;20227;-74
2021/03/11 06:57:38;;;;;;;1.87;1.77;;;;;;;6.42;91.50;98654.44;5072519;28;20175;-75
2021/03/11 07:00:13;;;;;;;2.20;2.10;;;;;;;6.46;91.10;98661.59;5073226;28;20167;-74
2021/03/11 07:02:49;;;;;;;2.23;1.53;;;;;;;6.47;91.35;98659.66;5072967;28;20249;-75
2021/03/11 07:05:15;;;;;;;0.80;0.80;;;;;;;6.48;91.31;98653.91;5072765;28;20223;-74
2021/03/11 07:07:40;;;;;;;2.40;1.97;;;;;;;6.50;91.72;98637.31;5072550;28;20257;-74
2021/03/11 07:10:06;;;;;;;1.37;1.27;;;;;;;6.52;91.88;98652.16;5072947;28;20184;-74
2021/03/11 07:12:51;;;;;;;1.77;1.67;;;;;;;6.58;91.37;98658.16;5072803;28;20627;-74
2021/03/11 07:15:19;;;;;;;1.33;1.23;;;;;;;6.61;91.00;98662.13;5071634;28;20178;-74
2021/03/11 07:17:44;;;;;;;1.50;1.40;;;;;;;6.59;91.40;98654.31;5071973;28;20224;-73
2021/03/11 07:20:15;;;;;;;0.80;0.80;;;;;;;6.54;91.74;98628.19;5072850;28;20171;-75
2021/03/11 07:22:57;;;;;;;0.70;0.70;;;;;;;6.51;92.44;98634.28;5072574;28;20658;-73
2021/03/11 07:25:42;;;;;;;0.63;0.63;;;;;;;6.55;92.71;98642.56;5072639;28;20178;-75
2021/03/11 07:28:29;;;;;;;1.57;1.13;;;;;;;6.56;92.51;98644.94;5071859;28;20591;-73
2021/03/11 07:31:02;;;;;;;2.07;1.43;;;;;;;6.62;91.89;98642.81;5072140;28;20557;-73
2021/03/11 07:33:29;;;;;;;0.57;0.57;;;;;;;6.68;91.80;98641.50;5072426;28;20543;-74
2021/03/11 07:35:56;;;;;;;1.70;1.60;;;;;;;6.75;91.15;98644.47;5072458;28;20658;-73
2021/03/11 07:38:24;;;;;;;0.80;0.80;;;;;;;6.84;90.94;98634.38;5071961;28;20175;-73
2021/03/11 07:40:51;;;;;;;2.07;1.60;;;;;;;6.94;90.38;98649.44;5072472;28;20174;-73
2021/03/11 07:43:19;;;;;;;1.23;1.23;;;;;;;7.00;90.04;98648.13;5072199;28;20206;-74
2021/03/11 07:45:44;;;;;;;1.30;1.20;;;;;;;7.05;89.96;98652.56;5072987;28;20181;-74
2021/03/11 07:48:12;;;;;;;0.27;0.27;;;;;;;7.09;88.89;98643.44;5071958;28;20476;-75
2021/03/11 07:50:38;;;;;;;0.67;0.47;;;;;;;7.12;89.21;98648.19;5072057;28;20631;-74
2021/03/11 07:53:05;;;;;;;4.13;2.13;;;;;;;7.16;88.76;98649.13;5072069;28;20174;-74
2021/03/11 07:55:31;;;;;;;0.60;0.60;;;;;;;7.23;88.36;98645.06;5072230;28;20174;-74
2021/03/11 07:58:01;;;;;;;1.03;0.77;;;;;;;7.28;87.86;98651.09;5071956;28;20213;-74
2021/03/11 08:00:28;;;;;;;1.17;1.07;;;;;;;7.31;88.04;98628.69;5070499;28;20182;-74
2021/03/11 08:03:00;;;;;;;1.53;1.07;;;;;;;7.34;87.64;98622.56;5066078;28;20774;-73
2021/03/11 08:05:30;;;;;;;1.30;1.20;;;;;;;7.36;88.06;98633.09;5071690;28;20274;-73
2021/03/11 08:08:10;;;;;;;0.50;0.50;;;;;;;7.40;87.53;98621.25;5071116;28;20244;-74
2021/03/11 08:10:45;;;;;;;0.97;0.83;;;;;;;7.41;87.91;98620.13;5067236;28;20197;-74
2021/03/11 08:13:35;;;;;;;0.53;0.53;;;;;;;7.45;87.89;98612.88;5071134;28;20228;-73
2021/03/11 08:16:19;;;;;;;0.07;0.07;;;;;;;7.53;86.73;98622.09;5069723;28;20174;-73
2021/03/11 08:18:46;;;;;;;0.77;0.67;;;;;;;7.61;86.49;98628.56;5071748;28;20627;-72
2021/03/11 08:21:23;;;;;;;0.57;0.57;;;;;;;7.60;86.70;98625.03;5071889;28;20183;-73
2021/03/11 08:23:49;;;;;;;1.17;0.50;;;;;;;7.65;85.75;98638.41;5071514;28;20851;-73
2021/03/11 08:29:52;;;;;;;0.77;0.77;;;;;;;7.70;85.76;98610.22;5103412;23;20226;-74
2021/03/11 08:32:56;;;;;;;0.47;0.47;;;;;;;7.78;85.11;98613.97;5058979;28;20831;-74
2021/03/11 08:35:51;;;;;;;3.67;0.57;;;;;;;7.80;85.78;98603.53;4963208;28;20409;-73
2021/03/11 08:38:19;;;;;;;0.10;0.10;;;;;;;7.81;86.04;98589.63;4973352;28;20190;-74
2021/03/11 08:40:52;;;;;;;0.63;0.63;;;;;;;7.86;85.29;98592.13;5044523;28;20209;-73
2021/03/11 08:43:36;;;;;;;1.57;1.37;;;;;;;7.99;84.30;98579.34;5070831;28;20210;-73
2021/03/11 08:46:04;;;;;;;0.50;0.50;;;;;;;8.00;84.89;98587.16;5055924;28;20785;-73
2021/03/11 08:48:49;;;;;;;0.53;0.53;;;;;;;8.05;83.67;98583.41;5070213;28;20213;-72
2021/03/11 08:51:17;;;;;;;0.50;0.50;;;;;;;8.13;83.96;98590.66;5062095;28;20630;-73
2021/03/11 08:54:01;;;;;;;0.40;0.40;;;;;;;8.16;83.75;98568.22;5058253;28;20192;-73
2021/03/11 08:56:26;;;;;;;0.30;0.30;;;;;;;8.19;83.07;98564.03;5058060;28;20187;-73
2021/03/11 08:58:59;;;;;;;0.70;0.60;;;;;;;8.21;83.26;98550.88;5059030;28;20530;-73
2021/03/11 09:01:39;;;;;;;0.07;0.07;;;;;;;8.28;82.94;98554.59;5062546;28;20213;-73
2021/03/11 09:04:27;;;;;;;0.80;0.80;;;;;;;8.31;82.75;98553.13;5064710;28;20210;-79
2021/03/11 09:07:11;;;;;;;0.10;0.10;;;;;;;8.32;82.93;98566.38;5058905;28;20701;-74
2021/03/11 09:09:45;;;;;;;0.57;0.57;;;;;;;8.31;82.71;98545.75;5061986;28;20543;-73
2021/03/11 09:12:30;;;;;;;1.17;1.07;;;;;;;8.33;82.45;98543.47;5065662;28;20660;-73
2021/03/11 09:14:57;;;;;;;0.30;0.30;;;;;;;8.36;82.16;98550.19;5070519;28;20204;-73
2021/03/11 09:17:28;;;;;;;0.73;0.67;;;;;;;8.31;83.68;98544.97;5054446;28;20258;-74
2021/03/11 09:20:05;;;;;;;0.17;0.17;;;;;;;8.37;82.72;98545.53;5050318;28;20183;-73
2021/03/11 09:22:40;;;;;;;0.23;0.23;;;;;;;8.46;81.98;98557.88;5050431;28;20206;-73
2021/03/11 09:25:06;;;;;;;0.67;0.60;;;;;;;8.51;82.20;98551.41;5054677;28;20579;-73
2021/03/11 09:27:33;;;;;;;0.30;0.30;;;;;;;8.52;82.67;98542.09;5068654;28;20170;-73
2021/03/11 09:30:01;;;;;;;0.67;0.67;;;;;;;8.54;82.80;98531.69;5070423;28;20185;-73
2021/03/11 09:32:28;;;;;;;0.23;0.20;;;;;;;8.57;82.47;98539.16;5050183;28;20254;-72
2021/03/11 09:34:56;;;;;;;0.00;0.00;;;;;;;8.62;82.83;98539.69;5050096;28;20229;-73
2021/03/11 09:37:54;;;;;;;0.10;0.10;;;;;;;8.69;82.07;98525.50;5049905;28;20175;-72
2021/03/11 09:40:32;;;;;;;0.80;0.80;;;;;;;8.75;82.56;98507.78;5050178;28;20185;-73
2021/03/11 09:43:29;;;;;;;0.13;0.13;;;;;;;8.84;82.69;98486.66;5049954;28;20198;-73
2021/03/11 09:46:01;;;;;;;0.40;0.40;;;;;;;8.94;81.99;98488.84;5048934;28;20589;-74
2021/03/11 09:48:27;;;;;;;0.17;0.10;;;;;;;9.10;81.17;98477.97;5049516;28;20521;-74
2021/03/11 09:51:25;;;;;;;0.50;0.50;;;;;;;9.18;80.62;98478.97;5050160;28;20228;-74
2021/03/11 09:54:08;;;;;;;0.10;0.10;;;;;;;9.32;80.57;98471.16;5048237;28;20673;-73
2021/03/11 09:56:43;;;;;;;0.37;0.37;;;;;;;9.52;79.73;98463.84;5052397;28;20182;-73
2021/03/11 09:59:14;;;;;;;0.43;0.43;;;;;;;9.63;80.44;98445.03;5053978;28;20626;-74
2021/03/11 10:01:42;;;;;;;0.50;0.50;;;;;;;9.92;79.39;98433.63;5054342;28;20221;-74
2021/03/11 10:04:14;;;;;;;0.83;0.83;;;;;;;10.27;76.83;98432.81;5053830;28;20203;-74
2021/03/11 10:07:00;;;;;;;0.60;0.60;;;;;;;10.47;76.45;98411.78;5053258;28;20249;-75
2021/03/11 10:09:35;;;;;;;0.60;0.40;;;;;;;10.40;75.08;98398.75;5061652;28;20680;-72
2021/03/11 10:12:01;;;;;;;0.27;0.27;;;;;;;10.35;75.25;98410.78;5056350;28;20257;-73
2021/03/11 10:14:28;;;;;;;0.50;0.50;;;;;;;10.43;75.25;98403.53;5053883;28;20315;-72
2021/03/11 10:16:55;;;;;;;0.43;0.43;;;;;;;10.45;75.40;98395.75;5052869;28;20530;-72
2021/03/11 10:19:22;;;;;;;0.13;0.13;;;;;;;10.45;74.95;98395.75;5053808;28;20178;-74
2021/03/11 10:21:49;;;;;;;0.60;0.30;;;;;;;10.40;75.13;98401.50;5053687;28;20634;-74
2021/03/11 10:24:50;;;;;;;0.10;0.10;;;;;;;10.32;75.24;98386.13;5054018;28;20210;-73
2021/03/11 10:27:30;;;;;;;0.30;0.30;;;;;;;10.24;75.32;98387.13;5052989;28;20526;-72
2021/03/11 10:30:07;;;;;;;0.37;0.37;;;;;;;10.11;76.39;98392.69;5053677;28;20587;-74
2021/03/11 10:32:33;;;;;;;0.40;0.40;;;;;;;10.13;75.82;98384.19;5053662;28;20593;-73
2021/03/11 10:34:58;;;;;;;2.80;1.10;;;;;;;10.08;76.03;98398.09;5053831;28;20171;-72
2021/03/11 10:37:34;;;;;;;0.30;0.30;;;;;;;10.06;76.65;98400.41;5051618;28;20183;-72
2021/03/11 10:40:11;;;;;;;0.10;0.10;;;;;;;9.98;78.15;98413.09;5053139;28;20250;-73
2021/03/11 10:42:42;;;;;;;0.20;0.20;;;;;;;9.86;80.77;98420.63;5053418;28;20163;-73
2021/03/11 10:45:10;;;;;;;0.30;0.30;;;;;;;9.74;81.92;98391.53;5067814;28;20182;-72
2021/03/11 10:47:35;;;;;;;1.00;1.00;;;;;;;9.72;82.78;98366.56;5054854;28;20261;-74
2021/03/11 10:50:02;;;;;;;0.20;0.20;;;;;;;9.66;83.17;98370.69;5073496;28;20257;-72
2021/03/11 10:52:27;;;;;;;0.40;0.40;;;;;;;9.59;83.17;98386.91;5063237;28;20176;-73
2021/03/11 10:54:52;;;;;;;0.50;0.50;;;;;;;9.44;84.88;98388.50;5053581;28;20167;-75
2021/03/11 10:57:21;;;;;;;0.23;0.20;;;;;;;9.43;85.34;98403.28;5052841;28;20174;-75
2021/03/11 10:59:54;;;;;;;0.60;0.53;;;;;;;9.37;85.50;98396.50;5053191;28;20175;-75
2021/03/11 11:02:21;;;;;;;1.37;0.07;;;;;;;9.29;86.44;98401.00;5052799;28;20167;-75
2021/03/11 11:04:47;;;;;;;2.80;0.80;;;;;;;9.22;87.18;98403.56;5052329;28;20203;-74
2021/03/11 11:07:13;;;;;;;0.30;0.20;;;;;;;9.14;88.66;98421.66;5052627;28;20649;-74
2021/03/11 11:09:39;;;;;;;0.53;0.53;;;;;;;9.03;89.49;98430.72;5052970;28;20191;-73
2021/03/11 11:12:10;;;;;;;0.30;0.30;;;;;;;8.91;90.66;98420.69;5052819;28;20249;-75
2021/03/11 11:14:36;;;;;;;0.43;0.43;;;;;;;8.80;91.89;98414.94;5052949;28;20251;-74
2021/03/11 11:17:02;;;;;;;0.77;0.63;;;;;;;8.75;92.64;98447.09;5052575;28;20266;-73
2021/03/11 11:19:28;;;;;;;0.17;0.17;;;;;;;8.69;92.48;98403.00;5052634;28;20559;-73
2021/03/11 11:21:53;;;;;;;2.10;1.53;;;;;;;8.70;93.35;98376.56;5052661;28;20182;-73
2021/03/11 11:24:18;;;;;;;0.27;0.27;;;;;;;8.74;91.76;98339.34;5052686;28;20656;-73
2021/03/11 11:26:44;;;;;;;1.20;0.53;;;;;;;8.74;90.04;98351.03;5052486;28;20261;-73
2021/03/11 11:29:09;;;;;;;0.10;0.10;;;;;;;8.79;86.90;98350.75;5052794;28;20210;-74
2021/03/11 11:31:34;;;;;;;0.00;0.00;;;;;;;8.79;87.09;98341.78;5052542;28;20258;-73
2021/03/11 11:34:02;;;;;;;0.00;0.00;;;;;;;8.77;87.16;98339.44;5050328;28;20811;-74
2021/03/11 11:36:27;;;;;;;1.37;0.50;;;;;;;8.85;85.83;98324.84;5051320;28;20623;-74
2021/03/11 11:38:53;;;;;;;0.33;0.33;;;;;;;8.91;87.00;98319.91;5052517;28;20179;-74
2021/03/11 11:41:19;;;;;;;0.50;0.40;;;;;;;8.98;86.73;98324.78;5052333;28;20606;-72
2021/03/11 11:43:44;;;;;;;3.00;0.67;;;;;;;9.12;86.16;98303.31;5052201;28;20206;-72
2021/03/11 11:46:09;;;;;;;0.00;0.00;;;;;;;9.31;86.33;98314.25;5057860;28;20186;-72
2021/03/11 11:48:35;;;;;;;0.20;0.20;;;;;;;9.55;84.39;98315.97;5071689;28;20178;-73
2021/03/11 11:51:00;;;;;;;0.00;0.00;;;;;;;9.81;84.25;98307.91;5071648;28;20190;-73
2021/03/11 11:53:26;;;;;;;0.00;0.00;;;;;;;10.07;83.49;98325.56;5071812;28;20559;-73
2021/03/11 11:55:51;;;;;;;1.70;0.53;;;;;;;10.23;81.98;98326.31;5058817;28;20589;-72